Time;durP1;ratioP1;P1;durP2;ratioP2;P2;SDS_P1;SDS_P2;PMS_P1;PMS_P2;Temp;Humidity;BMP_temperature;BMP_pressure;BME280_temperature;BME280_humidity;BME280_pressure;Samples;Min_cycle;Max_cycle;Signal;HPM_P1;HPM_P2
2023/11/28 00:01:49;;;;;;;;;;;10.70;99.90;;;;;;5015597;28;19920;-75
2023/11/28 00:04:14;;;;;;;;;;;10.70;99.90;;;;;;5012931;28;19917;-75
2023/11/28 00:06:40;;;;;;;;;;;10.80;99.90;;;;;;5006919;28;19933;-74
2023/11/28 00:09:05;;;;;;;;;;;10.90;99.90;;;;;;4995629;28;19913;-74
2023/11/28 00:11:31;;;;;;;;;;;11.00;99.90;;;;;;4997027;28;19910;-75
2023/11/28 00:13:56;;;;;;;;;;;11.00;99.90;;;;;;5013943;28;19952;-75
2023/11/28 00:16:22;;;;;;;;;;;11.10;99.90;;;;;;5015057;28;20362;-74
2023/11/28 00:18:48;;;;;;;;;;;11.10;99.90;;;;;;5013864;28;19914;-75
2023/11/28 00:21:14;;;;;;;;;;;11.00;99.90;;;;;;5015099;28;19914;-75
2023/11/28 00:23:39;;;;;;;;;;;10.90;99.90;;;;;;5015230;28;19957;-74
2023/11/28 00:26:05;;;;;;;;;;;10.80;99.90;;;;;;5015281;28;19910;-75
2023/11/28 00:28:30;;;;;;;;;;;10.80;99.90;;;;;;5014757;28;20379;-75
2023/11/28 00:30:56;;;;;;;;;;;10.70;99.90;;;;;;5014917;28;19917;-75
2023/11/28 00:33:21;;;;;;;;;;;10.70;99.90;;;;;;5014788;28;20357;-75
2023/11/28 00:35:47;;;;;;;;;;;10.70;99.90;;;;;;5014887;28;19917;-74
2023/11/28 00:38:13;;;;;;;;;;;10.70;99.90;;;;;;5014741;28;19914;-75
2023/11/28 00:40:43;;;;;;;;;;;10.70;99.90;;;;;;5014764;28;19959;-75
2023/11/28 00:43:09;;;;;;;;;;;10.70;99.90;;;;;;5013950;28;19917;-74
2023/11/28 00:45:34;;;;;;;;;;;10.70;99.90;;;;;;5014727;28;19910;-75
2023/11/28 00:48:00;;;;;;;;;;;10.60;99.90;;;;;;5014914;28;19910;-75
2023/11/28 00:50:26;;;;;;;;;;;10.50;99.90;;;;;;5014625;28;20016;-74
2023/11/28 00:52:51;;;;;;;;;;;10.50;99.90;;;;;;5014510;28;19952;-75
2023/11/28 00:55:17;;;;;;;;;;;10.40;99.90;;;;;;5014541;28;19914;-75
2023/11/28 00:57:44;;;;;;;;;;;10.40;99.90;;;;;;5014513;28;19914;-74
2023/11/28 01:00:10;;;;;;;;;;;10.40;99.90;;;;;;5014130;28;20235;-75
2023/11/28 01:02:37;;;;;;;;;;;10.40;99.90;;;;;;5014233;28;19977;-75
2023/11/28 01:05:04;;;;;;;;;;;10.40;99.90;;;;;;5008420;28;19924;-75
2023/11/28 01:07:30;;;;;;;;;;;10.40;99.90;;;;;;5003337;28;20008;-75
2023/11/28 01:09:55;;;;;;;;;;;10.40;99.90;;;;;;4994157;28;20515;-75
2023/11/28 01:12:21;;;;;;;;;;;10.40;99.90;;;;;;5002099;28;20039;-74
2023/11/28 01:14:46;;;;;;;;;;;10.40;99.90;;;;;;5013312;28;19909;-75
2023/11/28 01:17:12;;;;;;;;;;;10.40;99.90;;;;;;5014093;28;19913;-75
2023/11/28 01:19:38;;;;;;;;;;;10.40;99.90;;;;;;5013853;28;20368;-75
2023/11/28 01:22:04;;;;;;;;;;;10.40;99.90;;;;;;5013987;28;20431;-74
2023/11/28 01:24:29;;;;;;;;;;;10.40;99.90;;;;;;5014359;28;19914;-75
2023/11/28 01:26:55;;;;;;;;;;;10.50;99.90;;;;;;5014293;28;20388;-75
2023/11/28 01:29:20;;;;;;;;;;;10.50;99.90;;;;;;5013846;28;20000;-75
2023/11/28 01:31:46;;;;;;;;;;;10.50;99.90;;;;;;5013319;28;19932;-75
2023/11/28 01:34:11;;;;;;;;;;;10.50;99.90;;;;;;5013793;28;19910;-75
2023/11/28 01:36:40;;;;;;;;;;;10.50;99.90;;;;;;5012540;28;19910;-74
2023/11/28 01:39:07;;;;;;;;;;;10.50;99.90;;;;;;5013827;28;19909;-75
2023/11/28 01:41:36;;;;;;;;;;;10.40;99.90;;;;;;5013804;28;19976;-75
2023/11/28 01:44:07;;;;;;;;;;;10.40;99.90;;;;;;5013581;28;19909;-74
2023/11/28 01:46:34;;;;;;;;;;;10.40;99.90;;;;;;5013674;28;19913;-75
2023/11/28 01:49:00;;;;;;;;;;;10.40;99.90;;;;;;5013951;28;19963;-75
2023/11/28 01:51:26;;;;;;;;;;;10.40;99.90;;;;;;5013671;28;20364;-74
2023/11/28 01:53:56;;;;;;;;;;;10.40;99.90;;;;;;5013728;28;20048;-75
2023/11/28 01:56:22;;;;;;;;;;;10.40;99.90;;;;;;5001665;28;20320;-75
2023/11/28 01:58:48;;;;;;;;;;;10.40;99.90;;;;;;4993855;28;19917;-75
2023/11/28 02:01:13;;;;;;;;;;;10.40;99.90;;;;;;4993934;28;19914;-74
2023/11/28 02:03:41;;;;;;;;;;;10.40;99.90;;;;;;5002819;28;19917;-75
2023/11/28 02:06:07;;;;;;;;;;;10.40;99.90;;;;;;5007969;28;19969;-75
2023/11/28 02:08:34;;;;;;;;;;;10.40;99.90;;;;;;5011150;28;19964;-75
2023/11/28 02:10:59;;;;;;;;;;;10.40;99.90;;;;;;5013626;28;19917;-75
2023/11/28 02:13:25;;;;;;;;;;;10.40;99.90;;;;;;5013304;28;20253;-75
2023/11/28 02:15:50;;;;;;;;;;;10.30;99.90;;;;;;5013199;28;19963;-74
2023/11/28 02:18:16;;;;;;;;;;;10.30;99.90;;;;;;5011272;28;19914;-75
2023/11/28 02:20:41;;;;;;;;;;;10.30;99.90;;;;;;5013081;28;19964;-75
2023/11/28 02:23:07;;;;;;;;;;;10.30;99.90;;;;;;5013524;28;19916;-75
2023/11/28 02:25:36;;;;;;;;;;;10.20;99.90;;;;;;5013213;28;19923;-75
2023/11/28 02:28:01;;;;;;;;;;;10.20;99.90;;;;;;5013209;28;20320;-75
2023/11/28 02:30:27;;;;;;;;;;;10.20;99.90;;;;;;5013416;28;19920;-75
2023/11/28 02:32:52;;;;;;;;;;;10.20;99.90;;;;;;5013065;28;19988;-75
2023/11/28 02:35:18;;;;;;;;;;;10.30;99.90;;;;;;5013520;28;19932;-75
2023/11/28 02:37:43;;;;;;;;;;;10.20;99.90;;;;;;5013298;28;19909;-75
2023/11/28 02:40:09;;;;;;;;;;;10.20;99.90;;;;;;5013184;28;19910;-75
2023/11/28 02:42:35;;;;;;;;;;;10.30;99.90;;;;;;5013182;28;20292;-75
2023/11/28 02:45:00;;;;;;;;;;;10.30;99.90;;;;;;5013086;28;20372;-75
2023/11/28 02:47:26;;;;;;;;;;;10.30;99.90;;;;;;5013047;28;19910;-75
2023/11/28 02:49:51;;;;;;;;;;;10.30;99.90;;;;;;5013003;28;19917;-75
2023/11/28 02:52:17;;;;;;;;;;;10.30;99.90;;;;;;5012429;28;19913;-74
2023/11/28 02:54:42;;;;;;;;;;;10.30;99.90;;;;;;5013166;28;20370;-74
2023/11/28 02:57:08;;;;;;;;;;;10.30;99.90;;;;;;4995002;28;19910;-75
2023/11/28 02:59:33;;;;;;;;;;;10.30;99.90;;;;;;4993622;28;19960;-75
2023/11/28 03:01:58;;;;;;;;;;;10.30;99.90;;;;;;4993310;28;19910;-75
2023/11/28 03:04:24;;;;;;;;;;;10.20;99.90;;;;;;5005779;28;20392;-75
2023/11/28 03:06:49;;;;;;;;;;;10.10;99.90;;;;;;5007657;28;19918;-75
2023/11/28 03:09:15;;;;;;;;;;;10.10;99.90;;;;;;4996579;28;19913;-74
2023/11/28 03:11:40;;;;;;;;;;;10.00;99.90;;;;;;4999143;28;19910;-74
2023/11/28 03:14:06;;;;;;;;;;;9.90;99.90;;;;;;5016276;28;20376;-75
2023/11/28 03:16:32;;;;;;;;;;;9.90;99.90;;;;;;5016519;28;19997;-75
2023/11/28 03:18:57;;;;;;;;;;;9.80;99.90;;;;;;5016256;28;20439;-75
2023/11/28 03:21:23;;;;;;;;;;;9.70;99.90;;;;;;5016288;28;20423;-74
2023/11/28 03:23:48;;;;;;;;;;;9.70;99.90;;;;;;5016376;28;19910;-75
2023/11/28 03:26:14;;;;;;;;;;;9.80;99.90;;;;;;5014796;28;19909;-74
2023/11/28 03:28:39;;;;;;;;;;;9.80;99.90;;;;;;5016237;28;20020;-75
2023/11/28 03:31:05;;;;;;;;;;;9.70;99.90;;;;;;5016281;28;20012;-75
2023/11/28 03:33:32;;;;;;;;;;;9.70;99.90;;;;;;5015646;28;19956;-74
2023/11/28 03:35:58;;;;;;;;;;;9.70;99.90;;;;;;5016017;28;19909;-75
2023/11/28 03:38:23;;;;;;;;;;;9.60;99.90;;;;;;5015840;28;19917;-75
2023/11/28 03:40:49;;;;;;;;;;;9.50;99.90;;;;;;5016128;28;20507;-75
2023/11/28 03:43:14;;;;;;;;;;;9.50;99.90;;;;;;5015928;28;20193;-75
2023/11/28 03:45:40;;;;;;;;;;;9.50;99.90;;;;;;5015797;28;19917;-75
2023/11/28 03:48:05;;;;;;;;;;;9.40;99.90;;;;;;5015523;28;19909;-74
2023/11/28 03:50:31;;;;;;;;;;;9.30;99.90;;;;;;5015727;28;19913;-75
2023/11/28 03:52:57;;;;;;;;;;;9.20;99.90;;;;;;5015173;28;20288;-75
2023/11/28 03:55:22;;;;;;;;;;;9.10;99.90;;;;;;5012239;28;19913;-75
2023/11/28 03:57:49;;;;;;;;;;;9.00;99.90;;;;;;4996088;28;19945;-74
2023/11/28 04:00:14;;;;;;;;;;;8.90;99.90;;;;;;4996057;28;20357;-74
2023/11/28 04:02:40;;;;;;;;;;;8.90;99.90;;;;;;4997514;28;19910;-75
2023/11/28 04:05:07;;;;;;;;;;;8.80;99.90;;;;;;5009935;28;19913;-74
2023/11/28 04:07:32;;;;;;;;;;;8.80;99.90;;;;;;5006737;28;19936;-75
2023/11/28 04:09:58;;;;;;;;;;;8.80;99.90;;;;;;5015230;28;19913;-75
2023/11/28 04:12:24;;;;;;;;;;;8.70;99.90;;;;;;5015112;28;20364;-75
2023/11/28 04:14:49;;;;;;;;;;;8.70;99.90;;;;;;5015459;28;19913;-75
2023/11/28 04:17:15;;;;;;;;;;;8.60;99.90;;;;;;5014162;28;20294;-75
2023/11/28 04:19:40;;;;;;;;;;;8.50;99.90;;;;;;5014941;28;19914;-75
2023/11/28 04:22:06;;;;;;;;;;;8.50;99.90;;;;;;5014925;28;20380;-75
2023/11/28 04:24:31;;;;;;;;;;;8.50;99.90;;;;;;5013871;28;20008;-75
2023/11/28 04:26:57;;;;;;;;;;;8.50;99.90;;;;;;5014827;28;20012;-74
2023/11/28 04:29:22;;;;;;;;;;;8.40;99.90;;;;;;5014888;28;19920;-75
2023/11/28 04:31:48;;;;;;;;;;;8.30;99.90;;;;;;5015034;28;20396;-75
2023/11/28 04:34:13;;;;;;;;;;;8.30;99.90;;;;;;5014838;28;19914;-74
2023/11/28 04:36:40;;;;;;;;;;;8.20;99.90;;;;;;5014965;28;19909;-74
2023/11/28 04:39:06;;;;;;;;;;;8.20;99.90;;;;;;5014758;28;19910;-75
2023/11/28 04:41:31;;;;;;;;;;;8.10;99.90;;;;;;5014787;28;20428;-74
2023/11/28 04:43:57;;;;;;;;;;;8.10;99.90;;;;;;5014707;28;19959;-74
2023/11/28 04:46:22;;;;;;;;;;;8.00;99.90;;;;;;5014915;28;19919;-75
2023/11/28 04:48:48;;;;;;;;;;;7.90;99.90;;;;;;5014393;28;19963;-74
2023/11/28 04:51:14;;;;;;;;;;;7.90;99.90;;;;;;5014975;28;19964;-74
2023/11/28 04:53:39;;;;;;;;;;;7.80;99.90;;;;;;5014609;28;19910;-75
2023/11/28 04:56:06;;;;;;;;;;;7.80;99.90;;;;;;5014318;28;19910;-74
2023/11/28 04:58:34;;;;;;;;;;;7.70;99.90;;;;;;5014410;28;19963;-74
2023/11/28 05:01:03;;;;;;;;;;;7.70;99.90;;;;;;5029492;28;19948;-74
2023/11/28 05:03:29;;;;;;;;;;;7.60;99.90;;;;;;5014010;28;20056;-75
2023/11/28 05:05:55;;;;;;;;;;;7.50;99.90;;;;;;5006552;28;20016;-75
2023/11/28 05:08:20;;;;;;;;;;;7.50;99.90;;;;;;5009957;28;19949;-74
2023/11/28 05:10:46;;;;;;;;;;;7.40;99.90;;;;;;5014095;28;19913;-75
2023/11/28 05:13:11;;;;;;;;;;;7.30;99.90;;;;;;5008581;28;19920;-75
2023/11/28 05:15:37;;;;;;;;;;;7.30;99.90;;;;;;5003149;28;19910;-74
2023/11/28 05:18:02;;;;;;;;;;;7.30;99.90;;;;;;5000249;28;19921;-74
2023/11/28 05:20:28;;;;;;;;;;;7.20;99.90;;;;;;5014205;28;19918;-75
2023/11/28 05:22:53;;;;;;;;;;;7.20;99.90;;;;;;5014125;28;19941;-75
2023/11/28 05:25:19;;;;;;;;;;;7.20;99.90;;;;;;5014345;28;19985;-75
2023/11/28 05:27:45;;;;;;;;;;;7.20;99.90;;;;;;5014049;28;19910;-75
2023/11/28 05:30:11;;;;;;;;;;;7.20;99.90;;;;;;5013651;28;19913;-74
2023/11/28 05:32:37;;;;;;;;;;;7.20;99.90;;;;;;5013400;28;19967;-74
2023/11/28 05:35:03;;;;;;;;;;;7.20;99.90;;;;;;5014062;28;20067;-75
2023/11/28 05:37:29;;;;;;;;;;;7.20;99.90;;;;;;5014133;28;19913;-75
2023/11/28 05:39:55;;;;;;;;;;;7.10;99.90;;;;;;5013772;28;19925;-75
2023/11/28 05:42:21;;;;;;;;;;;7.10;99.90;;;;;;5014004;28;19918;-75
2023/11/28 05:44:46;;;;;;;;;;;7.10;99.90;;;;;;5013537;28;19932;-75
2023/11/28 05:47:12;;;;;;;;;;;7.10;99.90;;;;;;5013141;28;20384;-74
2023/11/28 05:49:37;;;;;;;;;;;7.10;99.90;;;;;;5013635;28;19949;-74
2023/11/28 05:52:03;;;;;;;;;;;7.10;99.90;;;;;;5013542;28;20391;-74
2023/11/28 05:54:29;;;;;;;;;;;7.10;99.90;;;;;;5013792;28;19949;-74
2023/11/28 05:56:54;;;;;;;;;;;7.10;99.90;;;;;;4997494;28;19929;-75
2023/11/28 05:59:20;;;;;;;;;;;7.10;99.90;;;;;;5008952;28;19910;-74
2023/11/28 06:01:58;;;;;;;;;;;7.00;99.90;;;;;;5004100;28;19956;-74
2023/11/28 06:04:23;;;;;;;;;;;7.00;99.90;;;;;;5010666;28;20307;-74
2023/11/28 06:06:49;;;;;;;;;;;7.00;99.90;;;;;;5005753;28;19913;-74
2023/11/28 06:09:15;;;;;;;;;;;6.90;99.90;;;;;;5008695;28;19914;-74
2023/11/28 06:11:40;;;;;;;;;;;7.00;99.90;;;;;;4999203;28;19964;-74
2023/11/28 06:14:06;;;;;;;;;;;6.90;99.90;;;;;;5012909;28;19910;-74
2023/11/28 06:16:31;;;;;;;;;;;6.90;99.90;;;;;;5012403;28;19909;-74
2023/11/28 06:18:57;;;;;;;;;;;6.90;99.90;;;;;;5001895;28;19918;-75
2023/11/28 06:21:22;;;;;;;;;;;6.90;99.90;;;;;;4999636;28;19913;-74
2023/11/28 06:23:48;;;;;;;;;;;6.80;99.90;;;;;;5011817;28;20354;-74
2023/11/28 06:26:13;;;;;;;;;;;6.80;99.90;;;;;;5009880;28;19918;-74
2023/11/28 06:28:39;;;;;;;;;;;6.70;99.90;;;;;;5009336;28;19914;-74
2023/11/28 06:31:06;;;;;;;;;;;6.70;99.90;;;;;;5000995;28;19914;-75
2023/11/28 06:33:32;;;;;;;;;;;6.70;99.90;;;;;;5007559;28;20000;-74
2023/11/28 06:35:57;;;;;;;;;;;6.70;99.90;;;;;;5027743;28;20365;-74
2023/11/28 06:38:23;;;;;;;;;;;6.60;99.90;;;;;;5012753;28;19922;-74
2023/11/28 06:40:49;;;;;;;;;;;6.60;99.90;;;;;;5005497;28;19918;-74
2023/11/28 06:43:15;;;;;;;;;;;6.50;99.90;;;;;;5005833;28;20395;-74
2023/11/28 06:45:42;;;;;;;;;;;6.50;99.90;;;;;;5014649;28;19918;-74
2023/11/28 06:48:08;;;;;;;;;;;6.40;99.90;;;;;;5014780;28;19988;-74
2023/11/28 06:50:33;;;;;;;;;;;6.40;99.90;;;;;;5005051;28;19964;-74
2023/11/28 06:52:59;;;;;;;;;;;6.30;99.90;;;;;;5016124;28;19920;-74
2023/11/28 06:55:24;;;;;;;;;;;6.30;99.90;;;;;;5016474;28;19917;-74
2023/11/28 06:57:50;;;;;;;;;;;6.30;99.90;;;;;;5011686;28;19984;-74
2023/11/28 07:00:16;;;;;;;;;;;6.30;99.90;;;;;;4996560;28;19920;-74
2023/11/28 07:02:41;;;;;;;;;;;6.30;99.90;;;;;;5009850;28;19914;-74
2023/11/28 07:05:07;;;;;;;;;;;6.30;99.90;;;;;;5012526;28;19914;-74
2023/11/28 07:07:33;;;;;;;;;;;6.20;99.90;;;;;;5010533;28;19983;-74
2023/11/28 07:09:59;;;;;;;;;;;6.20;99.90;;;;;;5015061;28;20022;-74
2023/11/28 07:12:24;;;;;;;;;;;6.20;99.90;;;;;;5003511;28;19948;-74
2023/11/28 07:14:51;;;;;;;;;;;6.20;99.90;;;;;;5010814;28;19913;-74
2023/11/28 07:17:17;;;;;;;;;;;6.10;99.90;;;;;;5006934;28;20364;-74
2023/11/28 07:19:43;;;;;;;;;;;6.10;99.90;;;;;;5000747;28;19937;-74
2023/11/28 07:22:10;;;;;;;;;;;6.10;99.90;;;;;;5012241;28;19913;-75
2023/11/28 07:24:36;;;;;;;;;;;6.00;99.90;;;;;;5012827;28;19919;-74
2023/11/28 07:27:01;;;;;;;;;;;6.00;99.90;;;;;;5014250;28;19953;-77
2023/11/28 07:29:27;;;;;;;;;;;6.00;99.90;;;;;;4998064;28;19953;-76
2023/11/28 07:31:52;;;;;;;;;;;6.00;99.90;;;;;;5008275;28;19925;-76
2023/11/28 07:34:18;;;;;;;;;;;6.00;99.90;;;;;;5012880;28;19917;-76
2023/11/28 07:36:47;;;;;;;;;;;6.10;99.90;;;;;;5005683;28;19922;-75
2023/11/28 07:39:15;;;;;;;;;;;6.10;99.90;;;;;;5014028;28;19948;-77
2023/11/28 07:41:41;;;;;;;;;;;6.10;99.90;;;;;;5009877;28;20316;-75
2023/11/28 07:44:06;;;;;;;;;;;6.10;99.90;;;;;;5002162;28;19979;-76
2023/11/28 07:46:32;;;;;;;;;;;6.20;99.90;;;;;;4997945;28;19917;-75
2023/11/28 07:48:58;;;;;;;;;;;6.20;99.90;;;;;;5012669;28;19956;-77
2023/11/28 07:51:23;;;;;;;;;;;6.10;99.90;;;;;;5012588;28;19917;-77
2023/11/28 07:53:49;;;;;;;;;;;6.20;99.90;;;;;;5004392;28;19967;-77
2023/11/28 07:56:16;;;;;;;;;;;6.10;99.90;;;;;;5003909;28;20288;-76
2023/11/28 07:58:41;;;;;;;;;;;6.10;99.90;;;;;;5000670;28;19922;-76
2023/11/28 08:01:07;;;;;;;;;;;6.10;99.90;;;;;;5009381;28;19936;-75
2023/11/28 08:03:32;;;;;;;;;;;6.20;99.90;;;;;;5004979;28;19921;-76
2023/11/28 08:05:58;;;;;;;;;;;6.20;99.90;;;;;;5007249;28;19913;-75
2023/11/28 08:08:23;;;;;;;;;;;6.30;99.90;;;;;;5006711;28;20388;-77
2023/11/28 08:10:49;;;;;;;;;;;6.30;99.90;;;;;;5006280;28;19922;-75
2023/11/28 08:13:15;;;;;;;;;;;6.40;99.90;;;;;;4999858;28;19913;-75
2023/11/28 08:15:42;;;;;;;;;;;6.40;99.90;;;;;;5011978;28;19923;-76
2023/11/28 08:18:07;;;;;;;;;;;6.50;99.90;;;;;;5009151;28;20427;-77
2023/11/28 08:20:33;;;;;;;;;;;6.50;99.90;;;;;;4998755;28;19927;-75
2023/11/28 08:22:58;;;;;;;;;;;6.60;99.90;;;;;;5003621;28;19924;-76
2023/11/28 08:25:24;;;;;;;;;;;6.70;99.90;;;;;;4993509;28;19925;-75
2023/11/28 08:27:49;;;;;;;;;;;6.90;99.90;;;;;;5007859;28;19928;-76
2023/11/28 08:30:15;;;;;;;;;;;7.20;99.90;;;;;;4995987;28;19972;-77
2023/11/28 08:32:41;;;;;;;;;;;7.30;99.90;;;;;;5005533;28;20016;-77
2023/11/28 08:35:07;;;;;;;;;;;7.30;99.90;;;;;;5008404;28;20340;-76
2023/11/28 08:37:32;;;;;;;;;;;7.40;99.90;;;;;;5005035;28;19914;-76
2023/11/28 08:39:58;;;;;;;;;;;7.40;99.90;;;;;;5004140;28;20418;-76
2023/11/28 08:42:23;;;;;;;;;;;7.50;99.90;;;;;;5018965;28;19922;-75
2023/11/28 08:44:49;;;;;;;;;;;7.50;99.90;;;;;;4992404;28;19922;-75
2023/11/28 08:47:15;;;;;;;;;;;7.50;99.90;;;;;;4994512;28;20304;-75
2023/11/28 08:49:44;;;;;;;;;;;7.60;99.90;;;;;;5012322;28;19921;-76
2023/11/28 08:52:10;;;;;;;;;;;7.70;99.90;;;;;;5011471;28;19971;-75
2023/11/28 08:54:40;;;;;;;;;;;7.70;99.90;;;;;;5011910;28;19917;-75
2023/11/28 08:57:06;;;;;;;;;;;7.70;99.90;;;;;;5004831;28;19925;-75
2023/11/28 08:59:31;;;;;;;;;;;7.90;99.90;;;;;;4996871;28;20439;-77
2023/11/28 09:01:57;;;;;;;;;;;7.90;99.90;;;;;;5000277;28;20288;-75
2023/11/28 09:04:22;;;;;;;;;;;7.90;99.90;;;;;;5003848;28;19918;-75
2023/11/28 09:06:48;;;;;;;;;;;7.80;99.90;;;;;;5006943;28;19913;-75
2023/11/28 09:09:14;;;;;;;;;;;7.70;99.90;;;;;;5006546;28;19921;-77
2023/11/28 09:11:39;;;;;;;;;;;7.70;99.90;;;;;;5006681;28;19914;-77
2023/11/28 09:14:05;;;;;;;;;;;7.70;99.90;;;;;;5003663;28;19914;-75
2023/11/28 09:16:30;;;;;;;;;;;7.70;99.90;;;;;;4997137;28;19921;-76
2023/11/28 09:18:56;;;;;;;;;;;7.80;99.90;;;;;;5010852;28;19917;-75
2023/11/28 09:21:21;;;;;;;;;;;8.00;99.90;;;;;;5007961;28;19914;-75
2023/11/28 09:23:47;;;;;;;;;;;8.10;99.90;;;;;;4992007;28;20325;-77
2023/11/28 09:26:12;;;;;;;;;;;8.40;99.90;;;;;;4991631;28;19924;-77
2023/11/28 09:28:38;;;;;;;;;;;8.60;99.90;;;;;;4991896;28;19917;-75
2023/11/28 09:31:04;;;;;;;;;;;8.60;99.90;;;;;;4997697;28;20083;-76
2023/11/28 09:33:30;;;;;;;;;;;8.70;99.90;;;;;;5010192;28;20340;-76
2023/11/28 09:35:56;;;;;;;;;;;8.60;99.90;;;;;;5011123;28;19917;-75
2023/11/28 09:38:21;;;;;;;;;;;8.80;99.90;;;;;;4991616;28;20301;-77
2023/11/28 09:40:47;;;;;;;;;;;8.90;99.90;;;;;;4992585;28;19925;-76
2023/11/28 09:43:13;;;;;;;;;;;9.00;99.90;;;;;;5011013;28;19921;-77
2023/11/28 09:45:39;;;;;;;;;;;9.10;99.90;;;;;;5011169;28;19917;-75
2023/11/28 09:48:06;;;;;;;;;;;9.10;99.90;;;;;;5007536;28;19914;-76
2023/11/28 09:50:32;;;;;;;;;;;9.10;99.90;;;;;;5010690;28;19918;-77
2023/11/28 09:52:59;;;;;;;;;;;9.10;99.90;;;;;;5010946;28;19921;-75
2023/11/28 09:55:25;;;;;;;;;;;9.20;99.90;;;;;;5007472;28;20561;-75
2023/11/28 09:57:50;;;;;;;;;;;9.20;99.90;;;;;;4991813;28;19914;-75
2023/11/28 10:00:18;;;;;;;;;;;9.40;99.90;;;;;;4998424;28;19972;-77
2023/11/28 10:02:44;;;;;;;;;;;9.50;99.90;;;;;;4999579;28;19918;-77
2023/11/28 10:05:11;;;;;;;;;;;9.30;99.90;;;;;;5005799;28;20397;-77
2023/11/28 10:07:36;;;;;;;;;;;9.20;99.90;;;;;;5001184;28;19917;-75
2023/11/28 10:10:09;;;;;;;;;;;9.30;99.90;;;;;;5010374;28;19923;-75
2023/11/28 10:12:36;;;;;;;;;;;9.30;99.90;;;;;;4999976;28;19946;-75
2023/11/28 10:15:09;;;;;;;;;;;9.40;99.90;;;;;;4994406;28;19989;-77
2023/11/28 10:17:37;;;;;;;;;;;9.40;99.90;;;;;;4997564;28;20004;-76
2023/11/28 10:20:05;;;;;;;;;;;9.50;99.90;;;;;;4997520;28;19976;-75
2023/11/28 10:22:31;;;;;;;;;;;9.60;99.90;;;;;;5004237;28;19914;-76
2023/11/28 10:24:56;;;;;;;;;;;9.50;99.90;;;;;;4995340;28;19920;-75
2023/11/28 10:27:22;;;;;;;;;;;9.60;99.90;;;;;;4998818;28;19920;-77
2023/11/28 10:29:48;;;;;;;;;;;9.60;99.90;;;;;;5005368;28;19929;-77
2023/11/28 10:32:13;;;;;;;;;;;9.50;99.90;;;;;;5009892;28;19925;-79
2023/11/28 10:34:39;;;;;;;;;;;9.50;99.90;;;;;;5005983;28;19917;-76
2023/11/28 10:37:05;;;;;;;;;;;9.60;99.90;;;;;;5003202;28;20430;-76
2023/11/28 10:39:31;;;;;;;;;;;9.70;99.90;;;;;;5012865;28;20392;-76
2023/11/28 10:41:56;;;;;;;;;;;9.80;99.90;;;;;;5028956;28;19913;-76
2023/11/28 10:44:23;;;;;;;;;;;10.00;99.90;;;;;;5006605;28;19986;-76
2023/11/28 10:46:49;;;;;;;;;;;10.00;99.90;;;;;;5006897;28;19921;-75
2023/11/28 10:49:14;;;;;;;;;;;10.00;99.90;;;;;;5013381;28;19963;-76
2023/11/28 10:51:40;;;;;;;;;;;10.00;99.90;;;;;;4996977;28;19914;-75
2023/11/28 10:54:09;;;;;;;;;;;10.20;99.90;;;;;;5012967;28;20051;-76
2023/11/28 10:56:51;;;;;;;;;;;10.10;99.90;;;;;;5003839;28;19913;-76
2023/11/28 10:59:21;;;;;;;;;;;10.20;99.90;;;;;;5008047;28;19925;-76
2023/11/28 11:01:47;;;;;;;;;;;10.20;99.90;;;;;;5006376;28;20120;-75
2023/11/28 11:04:13;;;;;;;;;;;10.40;99.90;;;;;;5010571;28;19975;-75
2023/11/28 11:06:40;;;;;;;;;;;10.40;99.90;;;;;;5009648;28;20364;-75
2023/11/28 11:09:07;;;;;;;;;;;10.50;99.90;;;;;;5010258;28;19928;-76
2023/11/28 11:11:34;;;;;;;;;;;10.60;99.90;;;;;;5003522;28;19910;-76
2023/11/28 11:14:19;;;;;;;;;;;10.50;99.90;;;;;;5010606;28;19967;-75
2023/11/28 11:16:57;;;;;;;;;;;10.60;99.90;;;;;;5018377;28;19921;-75
2023/11/28 11:19:23;;;;;;;;;;;10.70;99.90;;;;;;5003399;28;20005;-76
2023/11/28 11:22:00;;;;;;;;;;;10.80;99.90;;;;;;5005480;28;19914;-76
2023/11/28 11:24:27;;;;;;;;;;;10.80;99.90;;;;;;5012224;28;19956;-75
2023/11/28 11:26:54;;;;;;;;;;;10.90;99.90;;;;;;5006938;28;19910;-75
2023/11/28 11:29:23;;;;;;;;;;;10.90;99.90;;;;;;5006487;28;19917;-76
2023/11/28 11:31:59;;;;;;;;;;;10.90;99.90;;;;;;4995892;28;20387;-76
2023/11/28 11:34:35;;;;;;;;;;;11.00;99.90;;;;;;5002653;28;19914;-76
2023/11/28 11:37:06;;;;;;;;;;;11.00;99.90;;;;;;4997579;28;19921;-75
2023/11/28 11:39:33;;;;;;;;;;;11.10;99.90;;;;;;5000474;28;20001;-75
2023/11/28 11:41:59;;;;;;;;;;;11.10;99.90;;;;;;4998639;28;19917;-76
2023/11/28 11:44:24;;;;;;;;;;;11.40;99.90;;;;;;5002801;28;19921;-76
2023/11/28 11:46:50;;;;;;;;;;;11.50;99.90;;;;;;5006697;28;20408;-77
2023/11/28 11:49:16;;;;;;;;;;;11.50;99.90;;;;;;5004702;28;20383;-76
2023/11/28 11:51:42;;;;;;;;;;;11.50;99.90;;;;;;5003791;28;19921;-76
2023/11/28 11:54:09;;;;;;;;;;;11.50;99.90;;;;;;5013062;28;20323;-75
2023/11/28 11:56:35;;;;;;;;;;;11.60;99.90;;;;;;4995808;28;19921;-75
2023/11/28 11:59:04;;;;;;;;;;;11.80;99.90;;;;;;5002949;28;19913;-76
2023/11/28 12:01:30;;;;;;;;;;;11.70;99.90;;;;;;5002495;28;19913;-77
2023/11/28 12:04:03;;;;;;;;;;;11.60;99.90;;;;;;5006516;28;19916;-76
2023/11/28 12:06:28;;;;;;;;;;;11.50;99.90;;;;;;5012076;28;19913;-75
2023/11/28 12:09:00;;;;;;;;;;;11.60;99.90;;;;;;5005223;28;20462;-76
2023/11/28 12:11:25;;;;;;;;;;;11.70;99.90;;;;;;4998549;28;20007;-76
2023/11/28 12:13:52;;;;;;;;;;;11.90;99.90;;;;;;5004541;28;20001;-77
2023/11/28 12:16:18;;;;;;;;;;;12.00;99.90;;;;;;5002409;28;19917;-76
2023/11/28 12:18:43;;;;;;;;;;;12.10;99.90;;;;;;5005701;28;19928;-76
2023/11/28 12:21:09;;;;;;;;;;;12.20;99.90;;;;;;5007527;28;20357;-76
2023/11/28 12:23:34;;;;;;;;;;;12.30;99.90;;;;;;5004922;28;19914;-75
2023/11/28 12:26:00;;;;;;;;;;;12.30;99.90;;;;;;5002868;28;20365;-76
2023/11/28 12:28:26;;;;;;;;;;;12.40;99.90;;;;;;5000457;28;19924;-76
2023/11/28 12:30:52;;;;;;;;;;;12.80;99.90;;;;;;5004409;28;20445;-76
2023/11/28 12:33:18;;;;;;;;;;;12.70;99.90;;;;;;4996207;28;19926;-76
2023/11/28 12:35:49;;;;;;;;;;;12.70;99.90;;;;;;5004958;28;20402;-76
2023/11/28 12:38:15;;;;;;;;;;;12.70;99.90;;;;;;5011127;28;19924;-76
2023/11/28 12:40:43;;;;;;;;;;;12.80;99.90;;;;;;5000985;28;19918;-77
2023/11/28 12:43:19;;;;;;;;;;;12.90;99.90;;;;;;5005533;28;19917;-76
2023/11/28 12:45:45;;;;;;;;;;;13.20;99.90;;;;;;4996138;28;19987;-76
2023/11/28 12:48:10;;;;;;;;;;;12.50;99.90;;;;;;5002678;28;19957;-77
2023/11/28 12:50:36;;;;;;;;;;;12.40;99.90;;;;;;5006152;28;20307;-77
2023/11/28 12:53:14;;;;;;;;;;;12.50;99.90;;;;;;5005533;28;19921;-77
2023/11/28 12:55:39;;;;;;;;;;;12.00;99.90;;;;;;5007737;28;20416;-77
2023/11/28 12:58:05;;;;;;;;;;;12.00;99.90;;;;;;5002000;28;19993;-76
2023/11/28 13:00:30;;;;;;;;;;;12.00;99.90;;;;;;4997799;28;19925;-76
2023/11/28 13:02:56;;;;;;;;;;;11.60;99.90;;;;;;5004134;28;20000;-76
2023/11/28 13:05:23;;;;;;;;;;;11.60;99.90;;;;;;5007319;28;19956;-77
2023/11/28 13:07:48;;;;;;;;;;;12.20;99.90;;;;;;5006205;28;19924;-76
2023/11/28 13:10:14;;;;;;;;;;;12.80;99.90;;;;;;5001209;28;19921;-76
2023/11/28 13:12:39;;;;;;;;;;;12.80;99.90;;;;;;5002197;28;20369;-76
2023/11/28 13:15:06;;;;;;;;;;;13.20;99.90;;;;;;5011397;28;20384;-76
2023/11/28 13:17:32;;;;;;;;;;;12.70;99.90;;;;;;4995124;28;19914;-77
2023/11/28 13:19:58;;;;;;;;;;;13.70;99.90;;;;;;5001256;28;20345;-77
2023/11/28 13:22:23;;;;;;;;;;;14.40;99.90;;;;;;4995201;28;19924;-76
2023/11/28 13:24:51;;;;;;;;;;;14.90;99.90;;;;;;5009752;28;19917;-76
2023/11/28 13:27:16;;;;;;;;;;;13.60;99.90;;;;;;5007147;28;19913;-76
2023/11/28 13:29:43;;;;;;;;;;;13.70;99.90;;;;;;4994152;28;20381;-76
2023/11/28 13:32:08;;;;;;;;;;;14.40;99.90;;;;;;5005686;28;20451;-77
2023/11/28 13:34:41;;;;;;;;;;;14.50;99.90;;;;;;5003756;28;20208;-76
2023/11/28 13:37:07;;;;;;;;;;;14.30;99.90;;;;;;5007933;28;19967;-76
2023/11/28 13:39:33;;;;;;;;;;;14.20;99.90;;;;;;5007699;28;19914;-76
2023/11/28 13:41:58;;;;;;;;;;;13.70;99.90;;;;;;5009839;28;19913;-76
2023/11/28 13:44:24;;;;;;;;;;;12.80;99.90;;;;;;5002749;28;19917;-77
2023/11/28 13:46:49;;;;;;;;;;;12.50;99.90;;;;;;5003737;28;19929;-76
2023/11/28 13:49:15;;;;;;;;;;;12.60;99.90;;;;;;5006003;28;20059;-76
2023/11/28 13:51:40;;;;;;;;;;;12.60;99.90;;;;;;5007060;28;20000;-76
2023/11/28 13:54:07;;;;;;;;;;;12.10;99.90;;;;;;4998096;28;20393;-76
2023/11/28 13:56:34;;;;;;;;;;;11.60;99.90;;;;;;5003740;28;19913;-77
2023/11/28 13:59:00;;;;;;;;;;;11.40;99.90;;;;;;5002863;28;19921;-77
2023/11/28 14:01:26;;;;;;;;;;;11.00;99.90;;;;;;5000278;28;19918;-75
2023/11/28 14:03:52;;;;;;;;;;;11.10;99.90;;;;;;5011221;28;19913;-75
2023/11/28 14:06:17;;;;;;;;;;;11.40;99.90;;;;;;5000750;28;19917;-76
2023/11/28 14:08:43;;;;;;;;;;;11.90;99.90;;;;;;5008623;28;20447;-77
2023/11/28 14:11:08;;;;;;;;;;;12.40;99.90;;;;;;4995203;28;19922;-77
2023/11/28 14:13:35;;;;;;;;;;;12.50;99.90;;;;;;5007001;28;20400;-76
2023/11/28 14:16:04;;;;;;;;;;;12.10;99.90;;;;;;4997349;28;19993;-76
2023/11/28 14:18:30;;;;;;;;;;;12.00;99.90;;;;;;4993683;28;20277;-76